sensor_id;sensor_type;location;lat;lon;timestamp;P1;durP1;ratioP1;P2;durP2;ratioP2
70715;SDS011;59053;50.832;12.882;2023-04-30T00:00:45;20.93;;;11.07;;
70715;SDS011;59053;50.832;12.882;2023-04-30T00:03:11;21.00;;;10.97;;
70715;SDS011;59053;50.832;12.882;2023-04-30T00:05:36;21.83;;;11.00;;
70715;SDS011;59053;50.832;12.882;2023-04-30T00:08:02;22.63;;;11.53;;
70715;SDS011;59053;50.832;12.882;2023-04-30T00:10:29;22.85;;;11.23;;
70715;SDS011;59053;50.832;12.882;2023-04-30T00:12:54;23.80;;;12.07;;
70715;SDS011;59053;50.832;12.882;2023-04-30T00:15:21;23.23;;;11.63;;
70715;SDS011;59053;50.832;12.882;2023-04-30T00:17:46;27.10;;;11.95;;
70715;SDS011;59053;50.832;12.882;2023-04-30T00:20:11;22.70;;;11.70;;
70715;SDS011;59053;50.832;12.882;2023-04-30T00:22:37;21.53;;;10.57;;
70715;SDS011;59053;50.832;12.882;2023-04-30T00:25:03;22.47;;;11.77;;
70715;SDS011;59053;50.832;12.882;2023-04-30T00:27:28;23.13;;;11.35;;
70715;SDS011;59053;50.832;12.882;2023-04-30T00:29:55;23.25;;;11.20;;
70715;SDS011;59053;50.832;12.882;2023-04-30T00:32:21;22.80;;;10.30;;
70715;SDS011;59053;50.832;12.882;2023-04-30T00:34:46;24.93;;;11.53;;
70715;SDS011;59053;50.832;12.882;2023-04-30T00:37:12;22.30;;;10.20;;
70715;SDS011;59053;50.832;12.882;2023-04-30T00:39:37;23.67;;;10.97;;
70715;SDS011;59053;50.832;12.882;2023-04-30T00:42:03;22.43;;;11.63;;
70715;SDS011;59053;50.832;12.882;2023-04-30T00:44:29;25.73;;;11.35;;
70715;SDS011;59053;50.832;12.882;2023-04-30T00:46:54;22.73;;;11.20;;
70715;SDS011;59053;50.832;12.882;2023-04-30T00:49:20;22.30;;;12.10;;
70715;SDS011;59053;50.832;12.882;2023-04-30T00:51:45;23.37;;;11.83;;
70715;SDS011;59053;50.832;12.882;2023-04-30T00:54:11;19.67;;;10.63;;
70715;SDS011;59053;50.832;12.882;2023-04-30T00:56:37;21.35;;;11.07;;
70715;SDS011;59053;50.832;12.882;2023-04-30T00:59:02;19.70;;;9.50;;
70715;SDS011;59053;50.832;12.882;2023-04-30T01:01:27;21.20;;;10.00;;
70715;SDS011;59053;50.832;12.882;2023-04-30T01:03:53;20.37;;;10.37;;
70715;SDS011;59053;50.832;12.882;2023-04-30T01:06:19;18.90;;;9.47;;
70715;SDS011;59053;50.832;12.882;2023-04-30T01:08:44;17.85;;;9.35;;
70715;SDS011;59053;50.832;12.882;2023-04-30T01:11:16;18.00;;;8.85;;
70715;SDS011;59053;50.832;12.882;2023-04-30T01:19:42;17.80;;;9.00;;
70715;SDS011;59053;50.832;12.882;2023-04-30T01:22:10;16.92;;;8.55;;
70715;SDS011;59053;50.832;12.882;2023-04-30T01:25:19;17.85;;;7.88;;
70715;SDS011;59053;50.832;12.882;2023-04-30T01:28:04;18.38;;;8.60;;
70715;SDS011;59053;50.832;12.882;2023-04-30T01:30:30;18.43;;;8.70;;
70715;SDS011;59053;50.832;12.882;2023-04-30T01:32:56;19.70;;;9.00;;
70715;SDS011;59053;50.832;12.882;2023-04-30T01:40:49;16.65;;;8.60;;
70715;SDS011;59053;50.832;12.882;2023-04-30T01:43:23;20.15;;;9.13;;
70715;SDS011;59053;50.832;12.882;2023-04-30T01:46:24;17.45;;;9.18;;
70715;SDS011;59053;50.832;12.882;2023-04-30T01:48:56;18.23;;;8.80;;
70715;SDS011;59053;50.832;12.882;2023-04-30T01:51:40;19.85;;;9.15;;
70715;SDS011;59053;50.832;12.882;2023-04-30T01:54:19;18.73;;;8.80;;
70715;SDS011;59053;50.832;12.882;2023-04-30T01:56:53;13.60;;;6.65;;
70715;SDS011;59053;50.832;12.882;2023-04-30T01:59:33;20.58;;;8.73;;
70715;SDS011;59053;50.832;12.882;2023-04-30T02:01:59;19.83;;;8.47;;
70715;SDS011;59053;50.832;12.882;2023-04-30T02:04:25;15.27;;;8.13;;
70715;SDS011;59053;50.832;12.882;2023-04-30T02:06:50;15.40;;;7.67;;
70715;SDS011;59053;50.832;12.882;2023-04-30T02:09:16;18.30;;;7.73;;
70715;SDS011;59053;50.832;12.882;2023-04-30T02:11:41;20.27;;;7.90;;
70715;SDS011;59053;50.832;12.882;2023-04-30T02:14:07;12.75;;;6.20;;
70715;SDS011;59053;50.832;12.882;2023-04-30T02:16:33;6.77;;;3.40;;
70715;SDS011;59053;50.832;12.882;2023-04-30T02:18:58;11.20;;;3.95;;
70715;SDS011;59053;50.832;12.882;2023-04-30T02:21:23;9.10;;;4.57;;
70715;SDS011;59053;50.832;12.882;2023-04-30T02:23:49;7.10;;;3.37;;
70715;SDS011;59053;50.832;12.882;2023-04-30T02:26:15;10.43;;;5.20;;
70715;SDS011;59053;50.832;12.882;2023-04-30T02:28:40;15.07;;;5.80;;
70715;SDS011;59053;50.832;12.882;2023-04-30T02:31:06;10.57;;;5.53;;
70715;SDS011;59053;50.832;12.882;2023-04-30T02:33:31;15.57;;;5.93;;
70715;SDS011;59053;50.832;12.882;2023-04-30T02:35:58;12.80;;;5.70;;
70715;SDS011;59053;50.832;12.882;2023-04-30T02:38:25;13.15;;;6.05;;
70715;SDS011;59053;50.832;12.882;2023-04-30T02:40:51;14.65;;;5.93;;
70715;SDS011;59053;50.832;12.882;2023-04-30T02:43:16;10.27;;;5.20;;
70715;SDS011;59053;50.832;12.882;2023-04-30T02:45:48;11.47;;;5.87;;
70715;SDS011;59053;50.832;12.882;2023-04-30T02:48:14;13.65;;;5.78;;
70715;SDS011;59053;50.832;12.882;2023-04-30T02:50:39;13.05;;;6.10;;
70715;SDS011;59053;50.832;12.882;2023-04-30T02:53:05;13.93;;;6.13;;
70715;SDS011;59053;50.832;12.882;2023-04-30T02:55:30;12.30;;;5.23;;
70715;SDS011;59053;50.832;12.882;2023-04-30T02:57:56;11.65;;;5.68;;
70715;SDS011;59053;50.832;12.882;2023-04-30T03:00:22;13.07;;;5.97;;
70715;SDS011;59053;50.832;12.882;2023-04-30T03:02:47;11.23;;;5.57;;
70715;SDS011;59053;50.832;12.882;2023-04-30T03:05:13;13.00;;;5.80;;
70715;SDS011;59053;50.832;12.882;2023-04-30T03:07:39;13.85;;;6.47;;
70715;SDS011;59053;50.832;12.882;2023-04-30T03:10:04;13.80;;;6.10;;
70715;SDS011;59053;50.832;12.882;2023-04-30T03:12:31;13.30;;;5.97;;
70715;SDS011;59053;50.832;12.882;2023-04-30T03:14:57;10.97;;;5.30;;
70715;SDS011;59053;50.832;12.882;2023-04-30T03:17:22;13.90;;;5.65;;
70715;SDS011;59053;50.832;12.882;2023-04-30T03:19:49;15.17;;;6.00;;
70715;SDS011;59053;50.832;12.882;2023-04-30T03:22:15;13.77;;;5.65;;
70715;SDS011;59053;50.832;12.882;2023-04-30T03:24:43;15.43;;;5.70;;
70715;SDS011;59053;50.832;12.882;2023-04-30T03:27:09;13.57;;;5.33;;
70715;SDS011;59053;50.832;12.882;2023-04-30T03:29:34;11.32;;;5.50;;
70715;SDS011;59053;50.832;12.882;2023-04-30T03:31:59;12.13;;;5.43;;
70715;SDS011;59053;50.832;12.882;2023-04-30T03:34:25;12.77;;;5.73;;
70715;SDS011;59053;50.832;12.882;2023-04-30T03:36:50;13.30;;;5.40;;
70715;SDS011;59053;50.832;12.882;2023-04-30T03:39:15;10.93;;;5.20;;
70715;SDS011;59053;50.832;12.882;2023-04-30T03:41:41;14.03;;;4.80;;
70715;SDS011;59053;50.832;12.882;2023-04-30T03:44:06;12.43;;;5.00;;
70715;SDS011;59053;50.832;12.882;2023-04-30T03:46:38;11.27;;;5.07;;
70715;SDS011;59053;50.832;12.882;2023-04-30T03:49:04;10.50;;;4.97;;
70715;SDS011;59053;50.832;12.882;2023-04-30T03:51:29;10.87;;;4.90;;
70715;SDS011;59053;50.832;12.882;2023-04-30T03:53:55;13.93;;;5.60;;
70715;SDS011;59053;50.832;12.882;2023-04-30T03:56:20;14.37;;;5.00;;
70715;SDS011;59053;50.832;12.882;2023-04-30T03:58:45;13.93;;;5.27;;
70715;SDS011;59053;50.832;12.882;2023-04-30T04:01:11;12.57;;;5.32;;
70715;SDS011;59053;50.832;12.882;2023-04-30T04:03:38;11.50;;;5.30;;
70715;SDS011;59053;50.832;12.882;2023-04-30T04:06:03;12.73;;;5.13;;
70715;SDS011;59053;50.832;12.882;2023-04-30T04:08:31;10.17;;;4.57;;
70715;SDS011;59053;50.832;12.882;2023-04-30T04:10:58;12.45;;;5.10;;
70715;SDS011;59053;50.832;12.882;2023-04-30T04:13:23;11.77;;;5.30;;
70715;SDS011;59053;50.832;12.882;2023-04-30T04:15:48;9.97;;;4.73;;
70715;SDS011;59053;50.832;12.882;2023-04-30T04:18:14;10.67;;;4.43;;
70715;SDS011;59053;50.832;12.882;2023-04-30T04:20:39;11.93;;;4.67;;
70715;SDS011;59053;50.832;12.882;2023-04-30T04:23:05;10.77;;;4.43;;
70715;SDS011;59053;50.832;12.882;2023-04-30T04:25:30;10.77;;;4.77;;
70715;SDS011;59053;50.832;12.882;2023-04-30T04:27:57;10.80;;;4.55;;
70715;SDS011;59053;50.832;12.882;2023-04-30T04:30:22;11.23;;;4.90;;
70715;SDS011;59053;50.832;12.882;2023-04-30T04:32:49;12.57;;;4.90;;
70715;SDS011;59053;50.832;12.882;2023-04-30T04:35:18;12.20;;;5.03;;
70715;SDS011;59053;50.832;12.882;2023-04-30T04:37:43;12.77;;;5.23;;
70715;SDS011;59053;50.832;12.882;2023-04-30T04:40:09;13.25;;;5.25;;
70715;SDS011;59053;50.832;12.882;2023-04-30T04:42:52;10.00;;;4.55;;
70715;SDS011;59053;50.832;12.882;2023-04-30T04:45:19;10.57;;;4.80;;
70715;SDS011;59053;50.832;12.882;2023-04-30T04:47:46;11.43;;;4.65;;
70715;SDS011;59053;50.832;12.882;2023-04-30T04:50:12;12.93;;;5.07;;
70715;SDS011;59053;50.832;12.882;2023-04-30T04:52:38;11.43;;;4.70;;
70715;SDS011;59053;50.832;12.882;2023-04-30T04:55:04;12.93;;;4.87;;
70715;SDS011;59053;50.832;12.882;2023-04-30T04:57:30;11.43;;;4.55;;
70715;SDS011;59053;50.832;12.882;2023-04-30T04:59:55;12.63;;;4.43;;
70715;SDS011;59053;50.832;12.882;2023-04-30T05:02:21;10.93;;;4.95;;
70715;SDS011;59053;50.832;12.882;2023-04-30T05:07:23;13.68;;;5.55;;
70715;SDS011;59053;50.832;12.882;2023-04-30T05:09:49;13.00;;;5.20;;
70715;SDS011;59053;50.832;12.882;2023-04-30T05:12:14;12.73;;;5.15;;
70715;SDS011;59053;50.832;12.882;2023-04-30T05:14:40;13.17;;;5.00;;
70715;SDS011;59053;50.832;12.882;2023-04-30T05:17:05;11.20;;;5.10;;
70715;SDS011;59053;50.832;12.882;2023-04-30T05:19:31;11.35;;;4.85;;
70715;SDS011;59053;50.832;12.882;2023-04-30T05:21:56;11.50;;;4.70;;
70715;SDS011;59053;50.832;12.882;2023-04-30T05:24:22;13.23;;;4.57;;
70715;SDS011;59053;50.832;12.882;2023-04-30T05:26:47;10.75;;;4.55;;
70715;SDS011;59053;50.832;12.882;2023-04-30T05:29:13;12.10;;;4.90;;
70715;SDS011;59053;50.832;12.882;2023-04-30T05:31:41;14.13;;;4.50;;
70715;SDS011;59053;50.832;12.882;2023-04-30T05:34:14;8.47;;;4.37;;
70715;SDS011;59053;50.832;12.882;2023-04-30T05:36:40;9.30;;;3.90;;
70715;SDS011;59053;50.832;12.882;2023-04-30T05:39:05;8.23;;;3.83;;
70715;SDS011;59053;50.832;12.882;2023-04-30T05:41:31;11.40;;;4.37;;
70715;SDS011;59053;50.832;12.882;2023-04-30T05:43:56;14.23;;;4.50;;
70715;SDS011;59053;50.832;12.882;2023-04-30T05:46:21;12.37;;;4.90;;
70715;SDS011;59053;50.832;12.882;2023-04-30T05:48:47;12.00;;;4.40;;
70715;SDS011;59053;50.832;12.882;2023-04-30T05:51:12;10.97;;;3.73;;
70715;SDS011;59053;50.832;12.882;2023-04-30T05:53:38;14.40;;;5.00;;
70715;SDS011;59053;50.832;12.882;2023-04-30T05:56:03;15.52;;;4.85;;
70715;SDS011;59053;50.832;12.882;2023-04-30T05:58:29;13.20;;;4.20;;
70715;SDS011;59053;50.832;12.882;2023-04-30T06:00:54;12.57;;;4.63;;
70715;SDS011;59053;50.832;12.882;2023-04-30T06:03:20;11.30;;;3.65;;
70715;SDS011;59053;50.832;12.882;2023-04-30T06:05:46;11.87;;;4.47;;
70715;SDS011;59053;50.832;12.882;2023-04-30T06:08:11;16.13;;;5.28;;
70715;SDS011;59053;50.832;12.882;2023-04-30T06:10:37;12.87;;;4.90;;
70715;SDS011;59053;50.832;12.882;2023-04-30T06:13:03;15.20;;;4.53;;
70715;SDS011;59053;50.832;12.882;2023-04-30T06:15:28;13.10;;;5.10;;
70715;SDS011;59053;50.832;12.882;2023-04-30T06:17:54;11.68;;;5.25;;
70715;SDS011;59053;50.832;12.882;2023-04-30T06:20:19;12.53;;;5.73;;
70715;SDS011;59053;50.832;12.882;2023-04-30T06:22:45;10.13;;;4.90;;
70715;SDS011;59053;50.832;12.882;2023-04-30T06:25:10;11.53;;;5.67;;
70715;SDS011;59053;50.832;12.882;2023-04-30T06:27:36;19.52;;;6.32;;
70715;SDS011;59053;50.832;12.882;2023-04-30T06:30:01;9.00;;;3.83;;
70715;SDS011;59053;50.832;12.882;2023-04-30T06:32:27;15.77;;;5.90;;
70715;SDS011;59053;50.832;12.882;2023-04-30T06:34:52;12.43;;;5.68;;
70715;SDS011;59053;50.832;12.882;2023-04-30T06:37:19;12.80;;;4.77;;
70715;SDS011;59053;50.832;12.882;2023-04-30T06:39:44;9.93;;;4.10;;
70715;SDS011;59053;50.832;12.882;2023-04-30T06:42:09;18.17;;;5.93;;
70715;SDS011;59053;50.832;12.882;2023-04-30T06:44:35;16.80;;;6.30;;
70715;SDS011;59053;50.832;12.882;2023-04-30T06:47:01;13.02;;;5.65;;
70715;SDS011;59053;50.832;12.882;2023-04-30T06:49:26;18.47;;;6.40;;
70715;SDS011;59053;50.832;12.882;2023-04-30T06:51:52;14.30;;;6.03;;
70715;SDS011;59053;50.832;12.882;2023-04-30T06:54:18;13.40;;;6.38;;
70715;SDS011;59053;50.832;12.882;2023-04-30T06:56:46;12.35;;;6.13;;
70715;SDS011;59053;50.832;12.882;2023-04-30T06:59:12;15.43;;;6.37;;
70715;SDS011;59053;50.832;12.882;2023-04-30T07:01:37;17.33;;;6.70;;
70715;SDS011;59053;50.832;12.882;2023-04-30T07:04:03;15.33;;;6.70;;
70715;SDS011;59053;50.832;12.882;2023-04-30T07:06:43;13.65;;;6.45;;
70715;SDS011;59053;50.832;12.882;2023-04-30T07:09:09;16.07;;;6.80;;
70715;SDS011;59053;50.832;12.882;2023-04-30T07:11:34;14.50;;;5.75;;
70715;SDS011;59053;50.832;12.882;2023-04-30T07:14:00;14.33;;;6.60;;
70715;SDS011;59053;50.832;12.882;2023-04-30T07:16:25;14.68;;;6.25;;
70715;SDS011;59053;50.832;12.882;2023-04-30T07:18:51;15.53;;;6.70;;
70715;SDS011;59053;50.832;12.882;2023-04-30T07:21:17;15.93;;;6.17;;
70715;SDS011;59053;50.832;12.882;2023-04-30T07:23:42;17.10;;;6.90;;
70715;SDS011;59053;50.832;12.882;2023-04-30T07:26:12;21.92;;;7.15;;
70715;SDS011;59053;50.832;12.882;2023-04-30T07:28:40;14.23;;;6.63;;
70715;SDS011;59053;50.832;12.882;2023-04-30T07:31:13;14.57;;;6.72;;
70715;SDS011;59053;50.832;12.882;2023-04-30T07:33:44;14.23;;;6.10;;
70715;SDS011;59053;50.832;12.882;2023-04-30T07:36:21;11.82;;;6.57;;
70715;SDS011;59053;50.832;12.882;2023-04-30T07:39:11;12.80;;;5.90;;
70715;SDS011;59053;50.832;12.882;2023-04-30T07:41:41;12.30;;;6.33;;
70715;SDS011;59053;50.832;12.882;2023-04-30T07:44:09;13.15;;;6.18;;
70715;SDS011;59053;50.832;12.882;2023-04-30T07:46:45;17.80;;;6.82;;
70715;SDS011;59053;50.832;12.882;2023-04-30T07:49:11;17.27;;;6.10;;
70715;SDS011;59053;50.832;12.882;2023-04-30T07:51:54;13.20;;;5.72;;
70715;SDS011;59053;50.832;12.882;2023-04-30T07:54:53;13.73;;;6.27;;
70715;SDS011;59053;50.832;12.882;2023-04-30T07:57:49;14.43;;;6.35;;
70715;SDS011;59053;50.832;12.882;2023-04-30T08:00:25;15.98;;;6.75;;
70715;SDS011;59053;50.832;12.882;2023-04-30T08:02:53;14.10;;;6.57;;
70715;SDS011;59053;50.832;12.882;2023-04-30T08:05:21;12.93;;;5.20;;
70715;SDS011;59053;50.832;12.882;2023-04-30T08:07:54;15.07;;;6.20;;
70715;SDS011;59053;50.832;12.882;2023-04-30T08:10:22;13.82;;;6.65;;
70715;SDS011;59053;50.832;12.882;2023-04-30T08:12:58;16.27;;;6.50;;
70715;SDS011;59053;50.832;12.882;2023-04-30T08:15:28;15.10;;;7.20;;
70715;SDS011;59053;50.832;12.882;2023-04-30T08:17:57;10.50;;;5.45;;
70715;SDS011;59053;50.832;12.882;2023-04-30T08:20:31;11.40;;;4.80;;
70715;SDS011;59053;50.832;12.882;2023-04-30T08:23:19;13.68;;;5.97;;
70715;SDS011;59053;50.832;12.882;2023-04-30T08:25:50;12.60;;;6.38;;
70715;SDS011;59053;50.832;12.882;2023-04-30T08:28:43;13.67;;;6.17;;
70715;SDS011;59053;50.832;12.882;2023-04-30T08:31:19;10.90;;;5.47;;
70715;SDS011;59053;50.832;12.882;2023-04-30T08:36:19;12.50;;;6.43;;
70715;SDS011;59053;50.832;12.882;2023-04-30T08:41:54;14.95;;;6.32;;
70715;SDS011;59053;50.832;12.882;2023-04-30T08:48:14;13.38;;;6.40;;
70715;SDS011;59053;50.832;12.882;2023-04-30T08:54:10;11.20;;;5.50;;
70715;SDS011;59053;50.832;12.882;2023-04-30T09:04:17;14.27;;;6.15;;
70715;SDS011;59053;50.832;12.882;2023-04-30T09:09:56;15.70;;;5.43;;
70715;SDS011;59053;50.832;12.882;2023-04-30T09:12:57;16.83;;;6.25;;
70715;SDS011;59053;50.832;12.882;2023-04-30T09:15:51;9.13;;;4.25;;
70715;SDS011;59053;50.832;12.882;2023-04-30T09:21:12;9.73;;;4.18;;
70715;SDS011;59053;50.832;12.882;2023-04-30T09:23:55;10.30;;;5.00;;
70715;SDS011;59053;50.832;12.882;2023-04-30T09:26:29;13.57;;;4.97;;
70715;SDS011;59053;50.832;12.882;2023-04-30T09:28:56;14.35;;;5.10;;
70715;SDS011;59053;50.832;12.882;2023-04-30T09:31:23;9.57;;;4.47;;
70715;SDS011;59053;50.832;12.882;2023-04-30T09:33:49;11.23;;;5.05;;
70715;SDS011;59053;50.832;12.882;2023-04-30T09:36:17;11.03;;;5.00;;
70715;SDS011;59053;50.832;12.882;2023-04-30T09:38:42;11.23;;;4.60;;
70715;SDS011;59053;50.832;12.882;2023-04-30T09:41:19;11.23;;;5.53;;
70715;SDS011;59053;50.832;12.882;2023-04-30T09:43:54;11.00;;;4.90;;
70715;SDS011;59053;50.832;12.882;2023-04-30T09:46:21;12.13;;;5.20;;
70715;SDS011;59053;50.832;12.882;2023-04-30T09:48:57;12.52;;;4.90;;
70715;SDS011;59053;50.832;12.882;2023-04-30T09:51:24;11.93;;;5.03;;
70715;SDS011;59053;50.832;12.882;2023-04-30T09:53:51;9.10;;;4.80;;
70715;SDS011;59053;50.832;12.882;2023-04-30T09:56:19;7.50;;;4.38;;
70715;SDS011;59053;50.832;12.882;2023-04-30T09:59:05;11.03;;;5.10;;
70715;SDS011;59053;50.832;12.882;2023-04-30T10:01:32;9.82;;;4.60;;
70715;SDS011;59053;50.832;12.882;2023-04-30T10:09:49;9.00;;;4.68;;
70715;SDS011;59053;50.832;12.882;2023-04-30T10:12:19;7.60;;;3.97;;
70715;SDS011;59053;50.832;12.882;2023-04-30T10:14:56;7.68;;;4.20;;
70715;SDS011;59053;50.832;12.882;2023-04-30T10:17:27;12.18;;;4.50;;
70715;SDS011;59053;50.832;12.882;2023-04-30T10:19:56;9.02;;;3.30;;
70715;SDS011;59053;50.832;12.882;2023-04-30T10:22:24;7.97;;;4.22;;
70715;SDS011;59053;50.832;12.882;2023-04-30T10:24:49;8.57;;;4.40;;
70715;SDS011;59053;50.832;12.882;2023-04-30T10:27:16;12.45;;;5.10;;
70715;SDS011;59053;50.832;12.882;2023-04-30T10:30:00;9.63;;;4.40;;
70715;SDS011;59053;50.832;12.882;2023-04-30T10:32:29;9.57;;;4.75;;
70715;SDS011;59053;50.832;12.882;2023-04-30T10:38:14;10.60;;;4.43;;
70715;SDS011;59053;50.832;12.882;2023-04-30T10:40:45;8.85;;;4.18;;
70715;SDS011;59053;50.832;12.882;2023-04-30T10:43:24;9.80;;;4.80;;
70715;SDS011;59053;50.832;12.882;2023-04-30T10:45:50;10.82;;;4.35;;
70715;SDS011;59053;50.832;12.882;2023-04-30T10:48:18;15.00;;;4.00;;
70715;SDS011;59053;50.832;12.882;2023-04-30T10:50:56;5.22;;;2.30;;
70715;SDS011;59053;50.832;12.882;2023-04-30T10:53:23;11.07;;;4.10;;
70715;SDS011;59053;50.832;12.882;2023-04-30T10:55:56;11.02;;;4.07;;
70715;SDS011;59053;50.832;12.882;2023-04-30T10:58:31;8.37;;;3.77;;
70715;SDS011;59053;50.832;12.882;2023-04-30T11:04:09;6.05;;;3.45;;
70715;SDS011;59053;50.832;12.882;2023-04-30T11:06:48;7.07;;;3.90;;
70715;SDS011;59053;50.832;12.882;2023-04-30T11:09:14;6.57;;;2.88;;
70715;SDS011;59053;50.832;12.882;2023-04-30T11:11:41;9.83;;;4.23;;
70715;SDS011;59053;50.832;12.882;2023-04-30T11:14:09;8.00;;;4.20;;
70715;SDS011;59053;50.832;12.882;2023-04-30T11:16:35;10.05;;;4.50;;
70715;SDS011;59053;50.832;12.882;2023-04-30T11:19:04;7.23;;;4.10;;
70715;SDS011;59053;50.832;12.882;2023-04-30T11:22:27;9.50;;;4.40;;
70715;SDS011;59053;50.832;12.882;2023-04-30T11:27:25;10.07;;;4.53;;
70715;SDS011;59053;50.832;12.882;2023-04-30T11:29:59;12.02;;;4.40;;
70715;SDS011;59053;50.832;12.882;2023-04-30T11:32:32;10.38;;;4.78;;
70715;SDS011;59053;50.832;12.882;2023-04-30T11:34:59;10.20;;;4.40;;
70715;SDS011;59053;50.832;12.882;2023-04-30T11:37:36;9.60;;;4.60;;
70715;SDS011;59053;50.832;12.882;2023-04-30T11:40:17;9.27;;;3.80;;
70715;SDS011;59053;50.832;12.882;2023-04-30T11:42:42;9.35;;;3.60;;
70715;SDS011;59053;50.832;12.882;2023-04-30T11:45:12;8.18;;;3.88;;
70715;SDS011;59053;50.832;12.882;2023-04-30T11:47:50;7.18;;;3.63;;
70715;SDS011;59053;50.832;12.882;2023-04-30T11:50:18;6.60;;;3.00;;
70715;SDS011;59053;50.832;12.882;2023-04-30T11:52:50;8.40;;;3.40;;
70715;SDS011;59053;50.832;12.882;2023-04-30T11:55:17;8.02;;;3.75;;
70715;SDS011;59053;50.832;12.882;2023-04-30T11:57:47;8.63;;;3.40;;
70715;SDS011;59053;50.832;12.882;2023-04-30T12:00:18;7.70;;;3.58;;
70715;SDS011;59053;50.832;12.882;2023-04-30T12:02:46;10.40;;;4.47;;
70715;SDS011;59053;50.832;12.882;2023-04-30T12:05:19;7.93;;;4.13;;
70715;SDS011;59053;50.832;12.882;2023-04-30T12:07:46;5.15;;;2.65;;
70715;SDS011;59053;50.832;12.882;2023-04-30T12:10:20;6.85;;;3.33;;
70715;SDS011;59053;50.832;12.882;2023-04-30T12:12:46;9.65;;;3.10;;
70715;SDS011;59053;50.832;12.882;2023-04-30T12:15:13;8.60;;;3.50;;
70715;SDS011;59053;50.832;12.882;2023-04-30T12:17:40;6.13;;;2.70;;
70715;SDS011;59053;50.832;12.882;2023-04-30T12:20:06;6.28;;;2.70;;
70715;SDS011;59053;50.832;12.882;2023-04-30T12:22:32;7.30;;;3.05;;
70715;SDS011;59053;50.832;12.882;2023-04-30T12:24:58;8.10;;;3.40;;
70715;SDS011;59053;50.832;12.882;2023-04-30T12:27:24;5.90;;;3.10;;
70715;SDS011;59053;50.832;12.882;2023-04-30T12:29:49;7.90;;;3.27;;
70715;SDS011;59053;50.832;12.882;2023-04-30T12:32:20;5.93;;;2.67;;
70715;SDS011;59053;50.832;12.882;2023-04-30T12:34:45;6.22;;;3.38;;
70715;SDS011;59053;50.832;12.882;2023-04-30T12:37:16;8.87;;;3.37;;
70715;SDS011;59053;50.832;12.882;2023-04-30T12:39:41;5.63;;;2.90;;
70715;SDS011;59053;50.832;12.882;2023-04-30T12:42:07;6.28;;;2.85;;
70715;SDS011;59053;50.832;12.882;2023-04-30T12:44:40;7.53;;;3.20;;
70715;SDS011;59053;50.832;12.882;2023-04-30T12:47:07;5.85;;;2.95;;
70715;SDS011;59053;50.832;12.882;2023-04-30T12:49:34;7.90;;;3.30;;
70715;SDS011;59053;50.832;12.882;2023-04-30T12:52:03;6.07;;;3.27;;
70715;SDS011;59053;50.832;12.882;2023-04-30T12:54:33;4.97;;;2.47;;
70715;SDS011;59053;50.832;12.882;2023-04-30T12:57:03;9.48;;;3.10;;
70715;SDS011;59053;50.832;12.882;2023-04-30T12:59:31;7.70;;;2.47;;
70715;SDS011;59053;50.832;12.882;2023-04-30T13:02:10;8.60;;;3.28;;
70715;SDS011;59053;50.832;12.882;2023-04-30T13:04:38;8.00;;;3.20;;
70715;SDS011;59053;50.832;12.882;2023-04-30T13:07:04;5.30;;;2.30;;
70715;SDS011;59053;50.832;12.882;2023-04-30T13:09:31;6.68;;;3.00;;
70715;SDS011;59053;50.832;12.882;2023-04-30T13:11:57;4.43;;;2.53;;
70715;SDS011;59053;50.832;12.882;2023-04-30T13:14:22;12.27;;;2.60;;
70715;SDS011;59053;50.832;12.882;2023-04-30T13:16:48;5.00;;;2.73;;
70715;SDS011;59053;50.832;12.882;2023-04-30T13:19:13;7.53;;;2.80;;
70715;SDS011;59053;50.832;12.882;2023-04-30T13:21:39;7.73;;;2.80;;
70715;SDS011;59053;50.832;12.882;2023-04-30T13:24:05;5.57;;;2.60;;
70715;SDS011;59053;50.832;12.882;2023-04-30T13:26:30;6.20;;;2.70;;
70715;SDS011;59053;50.832;12.882;2023-04-30T13:28:56;7.22;;;2.90;;
70715;SDS011;59053;50.832;12.882;2023-04-30T13:31:29;6.50;;;2.60;;
70715;SDS011;59053;50.832;12.882;2023-04-30T13:33:58;5.50;;;2.53;;
70715;SDS011;59053;50.832;12.882;2023-04-30T13:36:23;4.40;;;2.40;;
70715;SDS011;59053;50.832;12.882;2023-04-30T13:38:49;5.67;;;2.70;;
70715;SDS011;59053;50.832;12.882;2023-04-30T13:41:15;7.83;;;2.60;;
70715;SDS011;59053;50.832;12.882;2023-04-30T13:43:45;8.13;;;2.65;;
70715;SDS011;59053;50.832;12.882;2023-04-30T13:46:11;7.68;;;1.92;;
70715;SDS011;59053;50.832;12.882;2023-04-30T13:48:37;3.90;;;2.30;;
70715;SDS011;59053;50.832;12.882;2023-04-30T13:51:02;6.57;;;2.50;;
70715;SDS011;59053;50.832;12.882;2023-04-30T13:53:40;6.40;;;2.28;;
70715;SDS011;59053;50.832;12.882;2023-04-30T13:56:22;5.30;;;2.10;;
70715;SDS011;59053;50.832;12.882;2023-04-30T13:58:48;7.53;;;2.53;;
70715;SDS011;59053;50.832;12.882;2023-04-30T14:01:19;5.15;;;1.80;;
70715;SDS011;59053;50.832;12.882;2023-04-30T14:03:45;4.83;;;2.17;;
70715;SDS011;59053;50.832;12.882;2023-04-30T14:06:11;3.40;;;1.55;;
70715;SDS011;59053;50.832;12.882;2023-04-30T14:08:37;3.47;;;1.73;;
70715;SDS011;59053;50.832;12.882;2023-04-30T14:11:02;6.93;;;2.10;;
70715;SDS011;59053;50.832;12.882;2023-04-30T14:13:46;3.88;;;1.60;;
70715;SDS011;59053;50.832;12.882;2023-04-30T14:16:11;4.60;;;2.00;;
70715;SDS011;59053;50.832;12.882;2023-04-30T14:18:44;3.38;;;1.58;;
70715;SDS011;59053;50.832;12.882;2023-04-30T14:21:10;2.97;;;1.40;;
70715;SDS011;59053;50.832;12.882;2023-04-30T14:23:35;4.53;;;2.20;;
70715;SDS011;59053;50.832;12.882;2023-04-30T14:26:02;4.70;;;2.20;;
70715;SDS011;59053;50.832;12.882;2023-04-30T14:28:28;5.20;;;2.20;;
70715;SDS011;59053;50.832;12.882;2023-04-30T14:33:51;5.68;;;2.15;;
70715;SDS011;59053;50.832;12.882;2023-04-30T14:36:16;4.30;;;2.00;;
70715;SDS011;59053;50.832;12.882;2023-04-30T14:41:28;6.43;;;2.17;;
70715;SDS011;59053;50.832;12.882;2023-04-30T14:43:55;3.15;;;1.80;;
70715;SDS011;59053;50.832;12.882;2023-04-30T14:46:30;3.43;;;1.97;;
70715;SDS011;59053;50.832;12.882;2023-04-30T14:48:57;6.32;;;1.90;;
70715;SDS011;59053;50.832;12.882;2023-04-30T14:51:39;3.97;;;1.80;;
70715;SDS011;59053;50.832;12.882;2023-04-30T14:54:05;5.07;;;1.90;;
70715;SDS011;59053;50.832;12.882;2023-04-30T14:56:35;3.40;;;1.88;;
70715;SDS011;59053;50.832;12.882;2023-04-30T14:59:00;3.38;;;1.60;;
70715;SDS011;59053;50.832;12.882;2023-04-30T15:01:26;3.60;;;1.90;;
70715;SDS011;59053;50.832;12.882;2023-04-30T15:03:51;5.43;;;1.93;;
70715;SDS011;59053;50.832;12.882;2023-04-30T15:06:19;3.60;;;1.83;;
70715;SDS011;59053;50.832;12.882;2023-04-30T15:11:46;4.10;;;2.00;;
70715;SDS011;59053;50.832;12.882;2023-04-30T15:14:12;4.23;;;1.80;;
70715;SDS011;59053;50.832;12.882;2023-04-30T15:20:04;2.75;;;1.48;;
70715;SDS011;59053;50.832;12.882;2023-04-30T15:22:30;4.13;;;1.73;;
70715;SDS011;59053;50.832;12.882;2023-04-30T15:24:59;3.63;;;1.48;;
70715;SDS011;59053;50.832;12.882;2023-04-30T15:27:26;7.03;;;1.70;;
70715;SDS011;59053;50.832;12.882;2023-04-30T15:29:51;3.23;;;1.80;;
70715;SDS011;59053;50.832;12.882;2023-04-30T15:32:17;4.18;;;1.75;;
70715;SDS011;59053;50.832;12.882;2023-04-30T15:34:43;3.35;;;1.80;;
70715;SDS011;59053;50.832;12.882;2023-04-30T15:37:08;5.63;;;1.83;;
70715;SDS011;59053;50.832;12.882;2023-04-30T15:39:33;4.03;;;1.90;;
70715;SDS011;59053;50.832;12.882;2023-04-30T15:42:02;3.60;;;1.80;;